Time;durP1;ratioP1;P1;durP2;ratioP2;P2;SDS_P1;SDS_P2;PMS_P1;PMS_P2;Temp;Humidity;BMP_temperature;BMP_pressure;BME280_temperature;BME280_humidity;BME280_pressure;Samples;Min_cycle;Max_cycle;Signal;HPM_P1;HPM_P2
2022/09/07 00:00:37;;;;;;;7.50;4.90;;;19.60;99.90;;;;;;5156607;27;20038;-78
2022/09/07 00:03:03;;;;;;;7.18;5.32;;;19.50;99.90;;;;;;5156585;27;20047;-78
2022/09/07 00:05:30;;;;;;;6.82;5.35;;;19.50;99.90;;;;;;5156480;27;20074;-78
2022/09/07 00:07:56;;;;;;;9.85;5.32;;;19.40;99.90;;;;;;5156498;27;20175;-78
2022/09/07 00:10:22;;;;;;;9.32;5.35;;;19.40;99.90;;;;;;5156490;27;20121;-78
2022/09/07 00:12:49;;;;;;;9.23;5.67;;;19.30;99.90;;;;;;5156335;27;20103;-78
2022/09/07 00:15:15;;;;;;;9.93;5.72;;;19.30;99.90;;;;;;5156347;27;20047;-78
2022/09/07 00:17:41;;;;;;;8.65;5.53;;;19.20;99.90;;;;;;5156320;27;20124;-78
2022/09/07 00:20:08;;;;;;;12.07;5.33;;;19.20;99.90;;;;;;5156198;27;20474;-78
2022/09/07 00:22:34;;;;;;;8.55;5.82;;;19.20;99.90;;;;;;5156406;27;20501;-78
2022/09/07 00:25:00;;;;;;;8.15;5.53;;;19.10;99.90;;;;;;5156085;27;20038;-78
2022/09/07 00:27:26;;;;;;;7.33;5.83;;;19.10;99.90;;;;;;5156098;27;20482;-78
2022/09/07 00:29:51;;;;;;;7.43;5.37;;;19.10;99.90;;;;;;5137755;27;20651;-78
2022/09/07 00:32:17;;;;;;;8.33;5.40;;;19.10;99.90;;;;;;5156197;27;20047;-78
2022/09/07 00:34:42;;;;;;;7.47;5.87;;;19.10;99.90;;;;;;5137941;27;20041;-78
2022/09/07 00:37:08;;;;;;;9.40;6.00;;;19.10;99.90;;;;;;5156005;27;20542;-78
2022/09/07 00:39:34;;;;;;;9.23;5.73;;;19.10;99.90;;;;;;5137729;27;20046;-78
2022/09/07 00:42:00;;;;;;;8.23;5.53;;;19.00;99.90;;;;;;5155884;27;20058;-78
2022/09/07 00:44:41;;;;;;;8.80;5.90;;;19.10;99.90;;;;;;5137395;27;20087;-78
2022/09/07 00:47:09;;;;;;;10.07;5.72;;;19.10;99.90;;;;;;5155753;27;20050;-78
2022/09/07 00:49:35;;;;;;;7.38;5.80;;;19.20;99.90;;;;;;5155693;27;20043;-78
2022/09/07 00:52:03;;;;;;;7.75;5.85;;;19.10;99.90;;;;;;5155679;27;20047;-78
2022/09/07 00:54:41;;;;;;;8.10;6.07;;;19.20;99.90;;;;;;5155676;27;20038;-78
2022/09/07 00:57:07;;;;;;;6.93;6.03;;;19.20;99.90;;;;;;5155665;27;20083;-77
2022/09/07 00:59:41;;;;;;;10.53;6.97;;;19.10;99.90;;;;;;5136699;27;20137;-77
2022/09/07 01:02:07;;;;;;;8.15;7.22;;;19.00;99.90;;;;;;5155671;27;20046;-77
2022/09/07 01:04:33;;;;;;;8.02;7.15;;;19.00;99.90;;;;;;5155169;27;20394;-77
2022/09/07 01:07:01;;;;;;;11.88;8.55;;;18.90;99.90;;;;;;5155457;27;20047;-77
2022/09/07 01:09:27;;;;;;;10.02;7.82;;;18.90;99.90;;;;;;5155678;27;20051;-77
2022/09/07 01:11:56;;;;;;;9.55;8.30;;;18.80;99.90;;;;;;5155187;27;20394;-77
2022/09/07 01:14:25;;;;;;;10.45;8.88;;;18.60;99.90;;;;;;5155479;27;20038;-77
2022/09/07 01:16:57;;;;;;;15.27;10.55;;;18.50;99.90;;;;;;5155728;27;20081;-77
2022/09/07 01:19:25;;;;;;;13.88;8.73;;;18.50;99.90;;;;;;5155330;27;20505;-77
2022/09/07 01:22:33;;;;;;;10.70;8.52;;;18.50;99.90;;;;;;5155356;27;20043;-78
2022/09/07 01:25:29;;;;;;;13.88;10.70;;;18.50;99.90;;;;;;5155470;27;20494;-78
2022/09/07 01:28:13;;;;;;;10.75;9.43;;;18.40;99.90;;;;;;5155871;27;20069;-80
2022/09/07 01:30:45;;;;;;;14.15;10.43;;;18.40;99.90;;;;;;5155257;27;20039;-79
2022/09/07 01:33:26;;;;;;;13.10;9.10;;;18.40;99.90;;;;;;5155541;27;20423;-79
2022/09/07 01:36:08;;;;;;;10.13;8.38;;;18.50;99.90;;;;;;5136764;27;20035;-78
2022/09/07 01:38:56;;;;;;;15.10;8.68;;;18.40;99.90;;;;;;5155438;27;20099;-80
2022/09/07 01:41:57;;;;;;;7.85;6.47;;;18.40;99.90;;;;;;5154980;27;20039;-80
2022/09/07 01:44:48;;;;;;;9.90;7.30;;;18.30;99.90;;;;;;5131892;27;20047;-79
2022/09/07 01:47:31;;;;;;;12.20;7.78;;;18.30;99.90;;;;;;5155193;27;20091;-79
2022/09/07 01:50:16;;;;;;;8.60;7.10;;;18.20;99.90;;;;;;5155805;27;20423;-78
2022/09/07 01:53:06;;;;;;;8.02;7.13;;;18.20;99.90;;;;;;5155314;27;20430;-80
2022/09/07 01:55:41;;;;;;;9.07;5.88;;;18.20;99.90;;;;;;5155268;27;20043;-79
2022/09/07 01:58:15;;;;;;;8.38;6.10;;;18.20;99.90;;;;;;5155995;27;20046;-78
2022/09/07 02:00:47;;;;;;;6.97;6.28;;;18.20;99.90;;;;;;5156137;27;20424;-80
2022/09/07 02:03:28;;;;;;;8.75;6.57;;;18.20;99.90;;;;;;5156042;27;20047;-79
2022/09/07 02:05:57;;;;;;;8.32;6.50;;;18.30;99.90;;;;;;5155533;27;20042;-78
2022/09/07 02:08:39;;;;;;;8.15;6.28;;;18.40;99.90;;;;;;5154923;27;20478;-77
2022/09/07 02:11:13;;;;;;;7.53;6.43;;;18.20;99.90;;;;;;5157993;27;20043;-79
2022/09/07 02:14:02;;;;;;;7.40;6.40;;;18.30;99.90;;;;;;5158856;27;20058;-77
2022/09/07 02:16:30;;;;;;;7.55;6.47;;;18.50;99.90;;;;;;5158635;27;20049;-79
2022/09/07 02:19:01;;;;;;;8.65;6.22;;;18.30;99.90;;;;;;5158668;27;20133;-78
2022/09/07 02:21:33;;;;;;;7.97;6.25;;;18.40;99.90;;;;;;5158714;27;20078;-80
2022/09/07 02:24:10;;;;;;;7.68;5.82;;;18.40;99.90;;;;;;5158856;27;20050;-79
2022/09/07 02:26:38;;;;;;;8.05;5.97;;;18.40;99.90;;;;;;5158774;27;20099;-79
2022/09/07 02:29:04;;;;;;;7.85;6.40;;;18.30;99.90;;;;;;5158443;27;20043;-79
2022/09/07 02:31:30;;;;;;;7.17;6.27;;;18.40;99.90;;;;;;5158424;27;20049;-78
2022/09/07 02:33:56;;;;;;;8.60;6.63;;;18.40;99.90;;;;;;5158486;27;20095;-79
2022/09/07 02:36:27;;;;;;;8.40;7.47;;;18.40;99.90;;;;;;5158679;27;20074;-79
2022/09/07 02:38:53;;;;;;;8.05;7.25;;;18.30;99.90;;;;;;5158608;27;20428;-79
2022/09/07 02:41:32;;;;;;;10.20;7.00;;;18.40;99.90;;;;;;5158685;27;20099;-78
2022/09/07 02:44:00;;;;;;;8.65;7.47;;;18.40;99.90;;;;;;5158049;27;20054;-78
2022/09/07 02:46:53;;;;;;;7.82;7.03;;;18.30;99.90;;;;;;5158169;27;20064;-79
2022/09/07 02:49:51;;;;;;;9.02;7.30;;;18.30;99.90;;;;;;5158342;27;20107;-80
2022/09/07 02:52:39;;;;;;;8.67;7.47;;;18.30;99.90;;;;;;5100888;27;20143;-78
2022/09/07 02:55:44;;;;;;;6.88;6.00;;;18.30;99.90;;;;;;5158048;27;20030;-79
2022/09/07 02:58:33;;;;;;;6.43;5.40;;;18.30;99.90;;;;;;5158008;27;20043;-78
2022/09/07 03:01:10;;;;;;;6.18;5.57;;;18.30;99.90;;;;;;5158353;27;20034;-78
2022/09/07 03:04:07;;;;;;;6.38;5.57;;;18.20;99.90;;;;;;5157864;27;20130;-78
2022/09/07 03:06:40;;;;;;;8.02;6.05;;;18.20;99.90;;;;;;5117655;27;20042;-79
2022/09/07 03:09:17;;;;;;;10.50;6.50;;;18.20;99.90;;;;;;5157696;27;20049;-78
2022/09/07 03:11:43;;;;;;;;;;;18.20;99.90;;;;;;5158376;27;20043;-79
2022/09/07 03:14:17;;;;;;;10.65;7.82;;;18.20;99.90;;;;;;5157930;27;19929;-78
2022/09/07 03:16:43;;;;;;;8.43;7.55;;;18.10;99.90;;;;;;5157642;27;20035;-78
2022/09/07 03:19:08;;;;;;;9.73;8.15;;;18.00;99.90;;;;;;5157605;27;20087;-78
2022/09/07 03:21:34;;;;;;;8.77;7.87;;;18.10;99.90;;;;;;5156434;27;20487;-79
2022/09/07 03:24:00;;;;;;;12.00;7.40;;;18.00;99.90;;;;;;5157442;27;20050;-80
2022/09/07 03:26:26;;;;;;;8.68;7.80;;;18.00;99.90;;;;;;5157376;27;20053;-78
2022/09/07 03:28:52;;;;;;;8.90;8.00;;;18.00;99.90;;;;;;5157387;27;20385;-79
2022/09/07 03:31:18;;;;;;;9.10;8.20;;;18.00;99.90;;;;;;5157383;27;20045;-78
2022/09/07 03:33:44;;;;;;;9.25;8.35;;;18.00;99.90;;;;;;5157265;27;20054;-79
2022/09/07 03:36:09;;;;;;;9.60;8.70;;;18.00;99.90;;;;;;5156904;27;20134;-78
2022/09/07 03:38:35;;;;;;;10.33;9.33;;;18.00;99.90;;;;;;5157134;27;20039;-77
2022/09/07 03:41:02;;;;;;;10.93;9.83;;;18.00;99.90;;;;;;5157067;27;20042;-79
2022/09/07 03:43:29;;;;;;;11.80;10.60;;;17.90;99.90;;;;;;5156794;27;20050;-78
2022/09/07 03:46:00;;;;;;;12.38;10.60;;;17.90;99.90;;;;;;5138853;27;20125;-78
2022/09/07 03:48:29;;;;;;;12.57;11.48;;;17.80;99.90;;;;;;5157430;27;20042;-79
2022/09/07 03:51:04;;;;;;;13.02;11.82;;;17.80;99.90;;;;;;5156860;27;20042;-78
2022/09/07 03:53:32;;;;;;;15.93;14.25;;;17.80;99.90;;;;;;5156784;27;20034;-78
2022/09/07 03:56:03;;;;;;;14.43;13.02;;;17.80;99.90;;;;;;5156851;27;20039;-78
2022/09/07 03:58:31;;;;;;;17.02;13.55;;;17.80;99.90;;;;;;5157050;27;20046;-79
2022/09/07 04:00:57;;;;;;;14.75;13.45;;;17.80;99.90;;;;;;5156746;27;20057;-79
2022/09/07 04:03:23;;;;;;;14.23;12.73;;;17.80;99.90;;;;;;5156632;27;20038;-78
2022/09/07 04:05:48;;;;;;;14.07;12.60;;;17.80;99.90;;;;;;5156526;27;20099;-79
2022/09/07 04:08:14;;;;;;;15.20;12.90;;;17.70;99.90;;;;;;5156600;27;20485;-79
2022/09/07 04:10:40;;;;;;;15.73;14.10;;;17.80;99.90;;;;;;5156511;27;20039;-77
2022/09/07 04:13:06;;;;;;;15.30;13.83;;;17.80;99.90;;;;;;5156472;27;20043;-78
2022/09/07 04:15:32;;;;;;;14.98;13.55;;;17.70;99.90;;;;;;5156479;27;20099;-80
2022/09/07 04:17:58;;;;;;;15.27;13.83;;;17.70;99.90;;;;;;5156264;27;20047;-78
2022/09/07 04:20:24;;;;;;;14.50;13.27;;;17.60;99.90;;;;;;5156392;27;20050;-78
2022/09/07 04:22:50;;;;;;;14.40;12.88;;;17.60;99.90;;;;;;5156257;27;20043;-79
2022/09/07 04:25:16;;;;;;;15.70;14.17;;;17.60;99.90;;;;;;5156496;27;20584;-78
2022/09/07 04:27:42;;;;;;;15.48;13.77;;;17.50;99.90;;;;;;5156176;27;20121;-78
2022/09/07 04:30:08;;;;;;;15.87;13.13;;;17.50;99.90;;;;;;5156227;27;20126;-77
2022/09/07 04:32:34;;;;;;;14.13;12.70;;;17.50;99.90;;;;;;5156008;27;20143;-78
2022/09/07 04:34:59;;;;;;;15.40;13.93;;;17.50;99.90;;;;;;5156087;27;20475;-77
2022/09/07 04:37:25;;;;;;;15.77;13.77;;;17.30;99.90;;;;;;5137456;27;20143;-78
2022/09/07 04:39:50;;;;;;;15.43;13.87;;;17.40;99.90;;;;;;5156012;27;20046;-78
2022/09/07 04:42:16;;;;;;;16.57;14.87;;;17.30;99.90;;;;;;5155851;27;20051;-79
2022/09/07 04:44:42;;;;;;;19.33;14.68;;;17.30;99.90;;;;;;5155929;27;20046;-79
2022/09/07 04:47:07;;;;;;;15.97;14.47;;;17.30;99.90;;;;;;5155821;27;20039;-79
2022/09/07 04:49:33;;;;;;;16.60;14.90;;;17.40;99.90;;;;;;5155994;27;20039;-78
2022/09/07 04:51:59;;;;;;;16.03;14.57;;;17.30;99.90;;;;;;5155808;27;20055;-78
2022/09/07 04:54:25;;;;;;;16.67;15.00;;;17.40;99.90;;;;;;5155738;27;20039;-79
2022/09/07 04:56:51;;;;;;;17.50;15.75;;;17.40;99.90;;;;;;5155739;27;20042;-78
2022/09/07 04:59:17;;;;;;;16.37;14.83;;;17.40;99.90;;;;;;5155701;27;20043;-79
2022/09/07 05:01:42;;;;;;;16.83;15.23;;;17.50;99.90;;;;;;5155846;27;20309;-77
2022/09/07 05:04:08;;;;;;;16.77;15.27;;;17.40;99.90;;;;;;5155500;27;20042;-78
2022/09/07 05:06:33;;;;;;;16.67;14.97;;;17.40;99.90;;;;;;5155542;27;20085;-79
2022/09/07 05:09:00;;;;;;;17.03;15.43;;;17.40;99.90;;;;;;5155503;27;20050;-79
2022/09/07 05:11:27;;;;;;;16.65;15.05;;;17.40;99.90;;;;;;5137470;27;20095;-78
2022/09/07 05:13:54;;;;;;;16.70;15.10;;;17.50;99.90;;;;;;5137012;27;20085;-78
2022/09/07 05:16:22;;;;;;;17.55;15.48;;;17.50;99.90;;;;;;5155421;27;20061;-78
2022/09/07 05:18:52;;;;;;;18.42;16.60;;;17.50;99.90;;;;;;5155417;27;20042;-78
2022/09/07 05:21:21;;;;;;;17.98;16.17;;;17.50;99.90;;;;;;5155765;27;20548;-79
2022/09/07 05:23:52;;;;;;;18.63;16.88;;;17.50;99.90;;;;;;5155415;27;20093;-77
2022/09/07 05:26:19;;;;;;;18.58;16.15;;;17.60;99.90;;;;;;5155241;27;20485;-78
2022/09/07 05:28:45;;;;;;;18.23;16.20;;;17.40;99.90;;;;;;5155456;27;20510;-78
2022/09/07 05:31:16;;;;;;;17.65;15.95;;;17.50;99.90;;;;;;5155397;27;20088;-78
2022/09/07 05:33:47;;;;;;;17.63;15.93;;;17.50;99.90;;;;;;5155826;27;20051;-79
2022/09/07 05:36:13;;;;;;;17.30;15.70;;;17.50;99.90;;;;;;5155307;27;20038;-78
2022/09/07 05:38:38;;;;;;;16.70;15.10;;;17.60;99.90;;;;;;5155481;27;20035;-78
2022/09/07 05:41:13;;;;;;;18.30;16.53;;;17.50;99.90;;;;;;5155240;27;20054;-79
2022/09/07 05:43:39;;;;;;;18.65;16.90;;;17.60;99.90;;;;;;5155257;27;20058;-78
2022/09/07 05:46:05;;;;;;;19.48;17.48;;;17.50;99.90;;;;;;5158342;27;20042;-78
2022/09/07 05:48:31;;;;;;;22.40;19.77;;;17.60;99.90;;;;;;5140845;27;20045;-79
2022/09/07 05:50:56;;;;;;;20.37;17.87;;;17.70;99.90;;;;;;5123747;27;20058;-78
2022/09/07 05:53:22;;;;;;;20.83;18.73;;;17.80;99.90;;;;;;5159224;27;20512;-78
2022/09/07 05:55:50;;;;;;;23.13;20.77;;;17.70;99.90;;;;;;5159225;27;20041;-77
2022/09/07 05:58:17;;;;;;;24.98;19.85;;;17.70;99.90;;;;;;5140528;27;20047;-78
2022/09/07 06:00:44;;;;;;;21.60;19.25;;;17.70;99.90;;;;;;5158887;27;20501;-79
2022/09/07 06:03:09;;;;;;;;;;;17.80;99.90;;;;;;5159447;27;20050;-78
2022/09/07 06:05:35;;;;;;;21.70;19.40;;;17.90;99.90;;;;;;5158890;27;19919;-79
2022/09/07 06:08:00;;;;;;;21.77;19.17;;;17.70;99.90;;;;;;5158693;27;20474;-78
2022/09/07 06:10:26;;;;;;;21.80;19.10;;;17.70;99.90;;;;;;5158916;27;20382;-78
2022/09/07 06:12:52;;;;;;;25.00;19.00;;;17.70;99.90;;;;;;5158737;27;20470;-78
2022/09/07 06:15:18;;;;;;;20.57;18.40;;;17.70;99.90;;;;;;5141271;27;20046;-79
2022/09/07 06:17:43;;;;;;;21.87;19.00;;;17.70;99.90;;;;;;5140874;27;20042;-78
2022/09/07 06:20:09;;;;;;;21.60;19.33;;;17.80;99.90;;;;;;5158780;27;20042;-78
2022/09/07 06:22:35;;;;;;;19.63;17.57;;;17.80;99.90;;;;;;5158580;27;20542;-79
2022/09/07 06:25:02;;;;;;;19.48;17.55;;;17.60;99.90;;;;;;5158487;27;20081;-78
2022/09/07 06:27:28;;;;;;;18.98;16.75;;;17.80;99.90;;;;;;5158554;27;20107;-77
2022/09/07 06:29:54;;;;;;;18.17;16.37;;;17.80;99.90;;;;;;5158540;27;20489;-79
2022/09/07 06:32:20;;;;;;;19.50;17.58;;;17.80;99.90;;;;;;5158261;27;20501;-78
2022/09/07 06:34:45;;;;;;;18.40;16.60;;;17.80;99.90;;;;;;5158299;27;20039;-78
2022/09/07 06:37:11;;;;;;;18.27;16.37;;;17.80;99.90;;;;;;5158319;27;20054;-79
2022/09/07 06:39:36;;;;;;;19.03;16.93;;;17.90;99.90;;;;;;5158393;27;20039;-78
2022/09/07 06:42:03;;;;;;;19.37;16.63;;;17.90;99.90;;;;;;5157918;27;20055;-78
2022/09/07 06:44:29;;;;;;;20.52;17.02;;;17.90;99.90;;;;;;5158231;27;20095;-78
2022/09/07 06:46:54;;;;;;;17.35;15.60;;;17.90;99.90;;;;;;5140141;27;20046;-78
2022/09/07 06:49:22;;;;;;;17.27;15.57;;;18.10;99.90;;;;;;5139661;27;20414;-78
2022/09/07 06:51:48;;;;;;;17.58;15.80;;;17.90;99.90;;;;;;5157780;27;20101;-78
2022/09/07 06:54:13;;;;;;;19.30;14.50;;;17.90;99.90;;;;;;5157886;27;20082;-82
2022/09/07 06:56:39;;;;;;;17.37;15.47;;;17.90;99.90;;;;;;5137682;27;20043;-79
2022/09/07 06:59:04;;;;;;;19.33;17.27;;;17.90;99.90;;;;;;5157857;27;20041;-81
2022/09/07 07:01:32;;;;;;;18.07;15.83;;;17.90;99.90;;;;;;5139353;27;20502;-80
2022/09/07 07:03:58;;;;;;;17.13;15.25;;;17.90;99.90;;;;;;5157395;27;20479;-80
2022/09/07 07:06:35;;;;;;;18.00;16.10;;;18.10;99.90;;;;;;5122391;27;20085;-81
2022/09/07 07:09:02;;;;;;;18.15;16.25;;;18.00;99.90;;;;;;5139096;27;20047;-78
2022/09/07 07:11:29;;;;;;;18.13;16.42;;;18.10;99.90;;;;;;5138772;27;20455;-78
2022/09/07 07:13:54;;;;;;;;;;;18.00;99.90;;;;;;5157226;27;20046;-77
2022/09/07 07:16:20;;;;;;;19.42;17.42;;;18.10;99.90;;;;;;5158156;27;19926;-78
2022/09/07 07:18:47;;;;;;;18.43;16.47;;;18.10;99.90;;;;;;5157688;27;20548;-79
2022/09/07 07:21:14;;;;;;;17.70;15.82;;;18.10;99.90;;;;;;5157539;27;20126;-77
2022/09/07 07:23:40;;;;;;;;;;;18.10;99.90;;;;;;5157962;27;20049;-78
2022/09/07 07:26:10;;;;;;;18.05;16.17;;;18.10;99.90;;;;;;5157312;27;19919;-79
2022/09/07 07:28:36;;;;;;;18.75;16.15;;;18.10;99.90;;;;;;5157872;27;20051;-78
2022/09/07 07:31:04;;;;;;;19.00;16.97;;;18.30;99.90;;;;;;5139005;27;20043;-78
2022/09/07 07:33:31;;;;;;;17.27;15.50;;;18.30;99.90;;;;;;5157243;27;20043;-78
2022/09/07 07:36:15;;;;;;;17.27;15.60;;;18.30;99.90;;;;;;5138998;27;20054;-79
2022/09/07 07:38:43;;;;;;;18.35;16.45;;;18.30;99.90;;;;;;5157106;27;20071;-78
2022/09/07 07:41:09;;;;;;;17.92;16.20;;;18.30;99.90;;;;;;5138686;27;20447;-77
2022/09/07 07:43:35;;;;;;;18.95;16.27;;;18.30;99.90;;;;;;5157758;27;20094;-77
2022/09/07 07:46:01;;;;;;;18.10;16.30;;;18.30;99.90;;;;;;5156977;27;20430;-78
2022/09/07 07:48:31;;;;;;;18.88;16.83;;;18.30;99.90;;;;;;5157038;27;20089;-78
2022/09/07 07:51:04;;;;;;;19.35;17.45;;;18.30;99.90;;;;;;5156924;27;20045;-78
2022/09/07 07:53:32;;;;;;;20.77;18.35;;;18.30;99.90;;;;;;5157422;27;20435;-79
2022/09/07 07:55:58;;;;;;;20.48;18.38;;;18.30;99.90;;;;;;5157189;27;20039;-79
2022/09/07 07:58:26;;;;;;;22.50;20.20;;;18.30;99.90;;;;;;5156787;27;20039;-79
2022/09/07 08:00:59;;;;;;;23.00;20.50;;;18.30;99.90;;;;;;5157083;27;20047;-78
2022/09/07 08:03:24;;;;;;;23.27;20.83;;;18.20;99.90;;;;;;5156826;27;20043;-79
2022/09/07 08:05:50;;;;;;;23.53;21.03;;;18.30;99.90;;;;;;5156503;27;20100;-78
2022/09/07 08:08:17;;;;;;;23.20;20.80;;;18.30;99.90;;;;;;5156214;27;20038;-79
2022/09/07 08:10:42;;;;;;;25.55;22.55;;;18.40;99.90;;;;;;5156478;27;20170;-78
2022/09/07 08:13:08;;;;;;;23.47;21.10;;;18.30;99.90;;;;;;5156551;27;20039;-78
2022/09/07 08:15:44;;;;;;;23.60;21.30;;;18.40;99.90;;;;;;5156422;27;20129;-78
2022/09/07 08:18:14;;;;;;;22.42;20.27;;;18.50;99.90;;;;;;5156399;27;20054;-78
2022/09/07 08:20:40;;;;;;;22.67;20.27;;;18.70;99.90;;;;;;5156154;27;20511;-79
2022/09/07 08:23:07;;;;;;;22.85;20.55;;;18.80;99.90;;;;;;5156328;27;20180;-78
2022/09/07 08:25:34;;;;;;;23.10;20.75;;;18.90;99.90;;;;;;5156218;27;20103;-78
2022/09/07 08:27:59;;;;;;;22.90;20.10;;;19.10;99.90;;;;;;5137690;27;20051;-78
2022/09/07 08:30:25;;;;;;;24.67;21.97;;;19.20;99.90;;;;;;5156294;27;20107;-79
2022/09/07 08:32:51;;;;;;;23.73;21.27;;;19.30;99.90;;;;;;5156115;27;20050;-79
2022/09/07 08:35:16;;;;;;;22.37;20.03;;;19.30;99.90;;;;;;5156060;27;20127;-79
2022/09/07 08:37:42;;;;;;;22.67;20.03;;;19.40;99.90;;;;;;5156058;27;20543;-78
2022/09/07 08:40:17;;;;;;;21.73;19.60;;;19.40;99.90;;;;;;5137538;27;20045;-79
2022/09/07 08:43:20;;;;;;;22.95;20.65;;;19.60;99.90;;;;;;5155969;27;20105;-78
2022/09/07 08:45:50;;;;;;;23.08;20.67;;;19.60;99.90;;;;;;5155496;27;20053;-79
2022/09/07 08:48:22;;;;;;;23.23;20.55;;;19.70;99.90;;;;;;5156087;27;20047;-79
2022/09/07 08:51:11;;;;;;;21.83;19.67;;;19.80;99.90;;;;;;5156372;27;20448;-78
2022/09/07 08:53:45;;;;;;;22.88;20.58;;;19.80;99.90;;;;;;5137720;27;20082;-78
2022/09/07 08:56:22;;;;;;;21.48;19.27;;;19.80;99.90;;;;;;5155695;27;20039;-78
2022/09/07 08:58:54;;;;;;;21.08;19.08;;;19.80;99.90;;;;;;5137738;27;20169;-79
2022/09/07 09:01:31;;;;;;;20.90;18.90;;;19.80;99.90;;;;;;5155681;27;20042;-78
2022/09/07 09:03:57;;;;;;;21.35;19.08;;;19.80;99.90;;;;;;5155897;27;20113;-78
2022/09/07 09:06:40;;;;;;;21.90;19.70;;;19.80;99.90;;;;;;5155447;27;20094;-78
2022/09/07 09:09:27;;;;;;;21.08;18.98;;;19.90;99.90;;;;;;5155977;27;20049;-78
2022/09/07 09:11:56;;;;;;;19.58;17.77;;;19.90;99.90;;;;;;5155589;27;20042;-78
2022/09/07 09:14:43;;;;;;;18.75;16.88;;;19.90;99.90;;;;;;5137044;27;20053;-79
2022/09/07 09:17:29;;;;;;;18.63;16.83;;;20.00;99.90;;;;;;5155486;27;20062;-79
2022/09/07 09:20:07;;;;;;;20.38;18.38;;;20.10;99.90;;;;;;5154657;27;20050;-78
2022/09/07 09:22:34;;;;;;;19.33;17.42;;;20.20;99.90;;;;;;5155390;27;20094;-78
2022/09/07 09:25:16;;;;;;;18.02;16.20;;;20.20;99.90;;;;;;5155297;27;20072;-78
2022/09/07 09:27:42;;;;;;;18.38;16.02;;;20.20;99.90;;;;;;5155158;27;20525;-79
2022/09/07 09:30:13;;;;;;;18.70;16.93;;;20.20;99.90;;;;;;5155378;27;20046;-77
2022/09/07 09:32:44;;;;;;;16.92;15.23;;;20.10;99.90;;;;;;5155364;27;20050;-78
2022/09/07 09:35:10;;;;;;;17.52;15.82;;;20.20;99.90;;;;;;5155562;27;20475;-77
2022/09/07 09:37:39;;;;;;;16.60;14.93;;;20.20;99.90;;;;;;5155260;27;20047;-77
2022/09/07 09:40:08;;;;;;;17.05;15.30;;;20.30;99.90;;;;;;5155177;27;20064;-78
2022/09/07 09:42:35;;;;;;;18.73;16.83;;;20.20;99.90;;;;;;5155129;27;20054;-78
2022/09/07 09:45:25;;;;;;;17.33;15.60;;;20.40;99.90;;;;;;5155358;27;20039;-78
2022/09/07 09:47:52;;;;;;;16.48;14.77;;;20.50;99.90;;;;;;5155311;27;20064;-78
2022/09/07 09:50:27;;;;;;;16.33;14.63;;;20.60;99.90;;;;;;5155056;27;20095;-78
2022/09/07 09:52:54;;;;;;;15.90;14.30;;;20.60;99.90;;;;;;5155573;27;20460;-78
2022/09/07 09:55:31;;;;;;;15.38;13.82;;;20.70;99.90;;;;;;5155123;27;20046;-77
2022/09/07 09:58:05;;;;;;;14.23;12.73;;;20.60;99.90;;;;;;5155073;27;20386;-77
2022/09/07 10:00:32;;;;;;;15.70;14.20;;;20.60;99.90;;;;;;5155300;27;20428;-78
2022/09/07 10:03:06;;;;;;;16.70;15.00;;;20.70;99.90;;;;;;5154955;27;20051;-77
2022/09/07 10:05:37;;;;;;;16.50;14.93;;;20.70;99.90;;;;;;5155325;27;20050;-78
2022/09/07 10:08:13;;;;;;;15.73;14.23;;;20.70;99.90;;;;;;5154680;27;20482;-78
2022/09/07 10:10:53;;;;;;;15.50;13.82;;;20.70;99.90;;;;;;5155226;27;20046;-78
2022/09/07 10:13:26;;;;;;;15.63;14.02;;;20.70;99.90;;;;;;5154735;27;20121;-78
2022/09/07 10:15:55;;;;;;;14.65;13.25;;;20.80;99.90;;;;;;5155325;27;20057;-78
2022/09/07 10:18:54;;;;;;;15.27;13.68;;;20.80;99.90;;;;;;5154782;27;20530;-78
2022/09/07 10:21:27;;;;;;;13.60;11.95;;;20.90;99.90;;;;;;5155000;27;20054;-77
2022/09/07 10:23:56;;;;;;;12.18;10.98;;;20.90;99.90;;;;;;5154721;27;20539;-78
2022/09/07 10:26:37;;;;;;;11.20;10.10;;;21.10;99.90;;;;;;5154638;27;20035;-78
2022/09/07 10:29:16;;;;;;;13.23;9.80;;;21.20;99.90;;;;;;5154522;27;20129;-78
2022/09/07 10:31:52;;;;;;;10.50;9.40;;;21.20;99.90;;;;;;5157251;27;20046;-78
2022/09/07 10:34:42;;;;;;;12.20;9.70;;;21.30;99.90;;;;;;5158421;27;20099;-77
2022/09/07 10:37:12;;;;;;;11.18;10.02;;;21.30;99.90;;;;;;5158332;27;20093;-78
2022/09/07 10:39:49;;;;;;;11.43;10.23;;;21.40;99.90;;;;;;5158614;27;20039;-78
2022/09/07 10:42:24;;;;;;;10.63;9.57;;;21.50;99.90;;;;;;5158240;27;20055;-77
2022/09/07 10:45:02;;;;;;;13.13;10.75;;;21.60;99.90;;;;;;5158212;27;20141;-78
2022/09/07 10:47:30;;;;;;;;;;;21.70;99.90;;;;;;5159181;27;20090;-78
2022/09/07 10:50:06;;;;;;;12.45;10.15;;;21.70;99.90;;;;;;5139575;27;19926;-78
2022/09/07 10:52:41;;;;;;;10.65;9.55;;;21.80;99.90;;;;;;5140148;27;20050;-78
2022/09/07 10:55:25;;;;;;;10.38;9.10;;;21.90;99.90;;;;;;5157996;27;20046;-78
2022/09/07 10:57:51;;;;;;;9.75;8.35;;;21.90;99.90;;;;;;5158343;27;20039;-78
2022/09/07 11:00:19;;;;;;;9.57;8.57;;;22.00;99.90;;;;;;5158129;27;20426;-78
2022/09/07 11:03:09;;;;;;;10.35;8.27;;;21.90;99.90;;;;;;5157710;27;20486;-78
2022/09/07 11:06:14;;;;;;;9.38;8.38;;;21.80;99.90;;;;;;5139270;27;20053;-78
2022/09/07 11:09:07;;;;;;;9.00;8.10;;;21.90;99.90;;;;;;5156702;27;20055;-78
2022/09/07 11:11:38;;;;;;;9.80;8.80;;;21.80;99.90;;;;;;5157796;27;20038;-78
2022/09/07 11:14:12;;;;;;;9.63;8.30;;;21.90;99.90;;;;;;5157750;27;20386;-78
2022/09/07 11:16:44;;;;;;;8.57;7.65;;;22.00;99.90;;;;;;5158103;27;20130;-78
2022/09/07 11:19:17;;;;;;;8.98;7.82;;;22.30;99.90;;;;;;5157598;27;20047;-78
2022/09/07 11:22:26;;;;;;;8.93;7.50;;;22.50;99.90;;;;;;5157604;27;20050;-78
2022/09/07 11:24:59;;;;;;;9.10;6.93;;;22.70;99.90;;;;;;5129916;27;20130;-78
2022/09/07 11:27:51;;;;;;;8.43;7.57;;;22.80;99.90;;;;;;5157784;27;20069;-78
2022/09/07 11:30:23;;;;;;;9.35;8.13;;;22.80;99.90;;;;;;5157355;27;20054;-77
2022/09/07 11:32:58;;;;;;;9.18;8.10;;;22.90;99.90;;;;;;5157292;27;20080;-77
2022/09/07 11:35:34;;;;;;;8.68;7.43;;;22.80;99.90;;;;;;5157367;27;20046;-76
2022/09/07 11:38:11;;;;;;;8.88;7.63;;;22.80;99.90;;;;;;5157123;27;20497;-78
2022/09/07 11:41:00;;;;;;;8.00;7.20;;;22.70;99.90;;;;;;5138785;27;20492;-78
2022/09/07 11:43:30;;;;;;;8.35;7.55;;;22.60;99.90;;;;;;5155125;27;20112;-78
2022/09/07 11:46:16;;;;;;;9.13;7.40;;;22.60;99.90;;;;;;5156925;27;20039;-78
2022/09/07 11:48:49;;;;;;;8.70;7.75;;;22.60;99.90;;;;;;5156056;27;20046;-78
2022/09/07 11:51:38;;;;;;;9.80;7.90;;;22.80;99.90;;;;;;5156962;27;20091;-77
2022/09/07 11:54:37;;;;;;;9.20;8.27;;;22.90;99.90;;;;;;5157415;27;20094;-78
2022/09/07 11:57:14;;;;;;;8.88;7.97;;;23.00;99.90;;;;;;5156495;27;20501;-78
2022/09/07 11:59:50;;;;;;;12.68;8.15;;;23.20;99.90;;;;;;5156825;27;20046;-78
2022/09/07 12:02:35;;;;;;;9.00;8.10;;;23.30;99.90;;;;;;5156752;27;20045;-78
2022/09/07 12:05:35;;;;;;;8.15;7.35;;;23.30;99.90;;;;;;5103702;27;20046;-78
2022/09/07 12:08:33;;;;;;;8.82;6.72;;;23.50;99.90;;;;;;5156758;27;20057;-78
2022/09/07 12:11:20;;;;;;;7.68;6.75;;;23.70;99.90;;;;;;5156590;27;20099;-78
2022/09/07 12:14:01;;;;;;;7.03;6.20;;;23.90;99.90;;;;;;5156892;27;20133;-78
2022/09/07 12:16:53;;;;;;;7.68;5.93;;;24.20;99.90;;;;;;5156530;27;20624;-78
2022/09/07 12:19:25;;;;;;;7.47;6.20;;;24.30;99.90;;;;;;5137939;27;20489;-78
2022/09/07 12:21:50;;;;;;;6.95;5.88;;;24.50;99.90;;;;;;5156088;27;20497;-78
2022/09/07 12:24:31;;;;;;;6.20;4.77;;;24.70;99.90;;;;;;5156259;27;20042;-78
2022/09/07 12:26:59;;;;;;;5.75;4.30;;;24.90;99.90;;;;;;5156171;27;20363;-78
2022/09/07 12:29:27;;;;;;;4.07;3.65;;;24.80;99.90;;;;;;5156571;27;20487;-77
2022/09/07 12:31:58;;;;;;;5.15;4.15;;;24.70;99.90;;;;;;5156175;27;20054;-78
2022/09/07 12:34:30;;;;;;;3.85;3.45;;;24.70;99.90;;;;;;5156650;27;20390;-78
2022/09/07 12:37:00;;;;;;;5.65;3.67;;;24.70;99.90;;;;;;5156305;27;20039;-77
2022/09/07 12:39:29;;;;;;;5.55;3.90;;;24.60;99.90;;;;;;5156363;27;20046;-78
2022/09/07 12:42:04;;;;;;;4.70;3.70;;;24.60;99.90;;;;;;5155620;27;20183;-78
2022/09/07 12:44:30;;;;;;;5.00;3.67;;;24.80;99.90;;;;;;5156335;27;20066;-78
2022/09/07 12:46:57;;;;;;;4.00;3.58;;;24.80;99.90;;;;;;5155922;27;20042;-77
2022/09/07 12:50:05;;;;;;;4.97;3.80;;;24.80;99.90;;;;;;5155869;27;20122;-78
2022/09/07 12:52:36;;;;;;;4.57;4.00;;;24.80;99.90;;;;;;5100926;27;20399;-77
2022/09/07 12:55:18;;;;;;;4.25;3.83;;;24.80;99.90;;;;;;5155659;27;20041;-78
2022/09/07 12:57:55;;;;;;;5.35;3.65;;;24.80;99.90;;;;;;5155785;27;20057;-77
2022/09/07 13:00:42;;;;;;;4.13;3.30;;;24.70;99.90;;;;;;5155692;27;20045;-78